Vronskiy — C4AY2 — position and weather

sailwx.info

Track history (hours):
 
Tides and Currents Weather Stations Pressure Air Temp Water Temp Dewpoint Dewpoint Depression Visibility Wind Speed Wind Dir Waves Ship Positions

Vronskiy

Last reported at 2015-Mar-28 09:30 UTC. Time now 2015-Mar-28 11:05 UTC.
Position N 35°56' W 005°30'.

Length 131 m; draft 5.2 m.

Type: Passenger vessel. MMSI: 210030000.

Date/timePositionNaut miles runAvg speedWind from/ knotsBaromVisibWave heightAir tempDewpointWater temp
2015-Mar-28 09:30N 35°56' W 005°30'1313.6
2015-Mar-28 08:33N 36°08' W 005°24'2 0.8
2015-Mar-28 06:32N 36°08' W 005°26'0 0.0
2015-Mar-28 05:32N 36°08' W 005°26'0 0.0
2015-Mar-28 04:32N 36°08' W 005°26'0 0.1
2015-Mar-28 03:33N 36°08' W 005°26'10 9.4
2015-Mar-28 02:32N 35°58' W 005°26'2 0.8
2015-Mar-27 23:33N 36°01' W 005°26'7 6.8
2015-Mar-27 22:31N 36°08' W 005°26'0 0.0
2015-Mar-27 21:33N 36°08' W 005°26'8 7.4
2015-Mar-27 20:32N 36°00' W 005°25'6 1.9
2015-Mar-27 17:21N 35°56' W 005°30'1013.0
2015-Mar-27 16:33N 36°05' W 005°24'3 2.7
2015-Mar-27 15:23N 36°08' W 005°26'0 0.0
2015-Mar-27 14:32N 36°08' W 005°26'7 5.7
2015-Mar-27 13:13N 36°01' W 005°24'9 2.4
2015-Mar-27 09:27N 35°54' W 005°31'1314.1
2015-Mar-27 08:32N 36°05' W 005°24'4 0.6
2015-Mar-27 01:30N 36°09' W 005°26'1212.8
2015-Mar-27 00:33N 35°57' W 005°27'4 2.0
2015-Mar-26 22:21N 35°54' W 005°31'1012.6
2015-Mar-26 21:33N 36°02' W 005°24'6 5.3
2015-Mar-26 20:23N 36°08' W 005°26'0 0.0
2015-Mar-26 19:22N 36°08' W 005°26'9 9.2
2015-Mar-26 18:27N 35°59' W 005°25'5 1.6
2015-Mar-26 15:33N 35°57' W 005°29'1312.7
2015-Mar-26 14:33N 36°09' W 005°26'0 0.1
2015-Mar-26 12:33N 36°09' W 005°26'  
2015-Mar-24 08:33N 35°59' W 005°28'9 1.8
2015-Mar-24 03:26N 36°08' W 005°26'8 8.6
2015-Mar-24 02:32N 36°01' W 005°22'8 2.5
2015-Mar-23 23:29N 35°56' W 005°30'1213.0
2015-Mar-23 22:33N 36°07' W 005°24'7 2.1
2015-Mar-23 19:14N 36°00' W 005°25'5 1.4
2015-Mar-23 15:33N 35°57' W 005°29'1211.8
2015-Mar-23 14:33N 36°08' W 005°26'0 0.0
2015-Mar-23 12:33N 36°09' W 005°26'13 3.1
2015-Mar-23 08:33N 35°56' W 005°30'1312.5
2015-Mar-23 07:31N 36°09' W 005°25'1 0.4
2015-Mar-23 04:22N 36°08' W 005°26'0 0.1
2015-Mar-23 02:33N 36°08' W 005°26'1111.3
2015-Mar-23 01:33N 35°57' W 005°28'1 0.6
2015-Mar-22 23:25N 35°56' W 005°30'1112.8
2015-Mar-22 22:33N 36°06' W 005°24'3 0.9
2015-Mar-22 19:33N 36°09' W 005°25'11 3.6
2015-Mar-22 16:34N 35°58' W 005°29'11 2.7
2015-Mar-22 12:32N 36°09' W 005°25'16 5.0
2015-Mar-22 09:18N 35°54' W 005°31'912.3
2015-Mar-22 08:33N 36°01' W 005°25'7 6.2
2015-Mar-22 07:26N 36°08' W 005°26'0 0.0
2015-Mar-22 06:23N 36°08' W 005°26'0 0.0
2015-Mar-22 04:05N 36°08' W 005°26'0 0.2
2015-Mar-22 03:32N 36°08' W 005°26'8 8.0
2015-Mar-22 02:33N 36°00' W 005°24'6 1.9
2015-Mar-21 23:27N 35°57' W 005°30'1314.2
2015-Mar-21 22:33N 36°09' W 005°25'1 0.6
2015-Mar-21 20:31N 36°08' W 005°26'7 7.5
2015-Mar-21 19:32N 36°01' W 005°23'10 3.0
2015-Mar-21 16:21N 35°53' W 005°31'1114.3
2015-Mar-21 15:33N 36°03' W 005°24'5 2.3
2015-Mar-21 13:24N 36°08' W 005°26'8 6.6
2015-Mar-21 12:13N 36°00' W 005°24'9 2.9
2015-Mar-21 09:14N 35°54' W 005°31'913.5
2015-Mar-21 08:33N 36°01' W 005°25'7 1.3
2015-Mar-21 03:18N 36°08' W 005°26'5 6.9
2015-Mar-21 02:33N 36°03' W 005°24'12 3.9
2015-Mar-20 23:30N 35°53' W 005°31'1414.9
2015-Mar-20 22:34N 36°06' W 005°24'3 1.2
2015-Mar-20 20:10N 36°08' W 005°26'8 8.7
2015-Mar-20 19:17N 36°00' W 005°24'6 2.0
2015-Mar-20 16:08N 35°56' W 005°30'813.2
2015-Mar-20 15:33N 36°02' W 005°24'7 2.3
2015-Mar-20 12:27N 36°09' W 005°26'1313.4
2015-Mar-20 11:30N 35°57' W 005°28'4 1.9
2015-Mar-20 09:08N 35°53' W 005°31'813.4
2015-Mar-20 08:33N 35°60' W 005°26'8 8.1
2015-Mar-20 07:33N 36°08' W 005°26'0 0.0
2015-Mar-20 06:21N 36°08' W 005°26'0 0.0
2015-Mar-20 04:34N 36°08' W 005°26'8 7.9
2015-Mar-20 03:33N 36°00' W 005°25'6 1.8
2015-Mar-20 00:27N 35°56' W 005°30'1314.3
2015-Mar-19 23:34N 36°08' W 005°25'1 1.0
2015-Mar-19 22:11N 36°08' W 005°26'0 0.0
2015-Mar-19 21:32N 36°08' W 005°26'0 0.0
2015-Mar-19 20:26N 36°08' W 005°26'7 7.0
2015-Mar-19 19:25N 36°01' W 005°24'7 2.3
2015-Mar-19 16:23N 35°57' W 005°31'1113.2
2015-Mar-19 15:33N 36°06' W 005°23'5 1.4
2015-Mar-19 12:11N 36°01' W 005°24'10 3.2
2015-Mar-19 09:06N 35°53' W 005°31'712.9
2015-Mar-19 08:34N 35°59' W 005°27'9 9.0
2015-Mar-19 07:33N 36°08' W 005°26'0 0.1
2015-Mar-19 03:10N 36°08' W 005°26'810.8
2015-Mar-19 02:25N 36°00' W 005°23'7 2.4
2015-Mar-18 23:31N 35°57' W 005°31'1313.4
2015-Mar-18 22:34N 36°09' W 005°25'1 0.6
2015-Mar-18 20:18N 36°08' W 005°26'9 9.4
2015-Mar-18 19:20N 35°59' W 005°25'3 0.8
2015-Mar-18 15:33N 35°58' W 005°29'10 3.4
2015-Mar-18 12:33N 36°08' W 005°26'1010.0
2015-Mar-18 11:32N 35°58' W 005°27'  
Track history (hours):
 
Tides and Currents Weather Stations Pressure Air Temp Water Temp Dewpoint Dewpoint Depression Visibility Wind Speed Wind Dir Waves Ship Positions

Vronskiy

Last reported at 2015-Mar-28 09:30 UTC. Time now 2015-Mar-28 11:05 UTC.
Position N 35°56' W 005°30'.

Length 131 m; draft 5.2 m.

Type: Passenger vessel. MMSI: 210030000.

Date/timePositionNaut miles runAvg speedWind from/ knotsBaromVisibWave heightAir tempDewpointWater temp
2015-Mar-28 09:30N 35°56' W 005°30'1313.6
2015-Mar-28 08:33N 36°08' W 005°24'2 0.8
2015-Mar-28 06:32N 36°08' W 005°26'0 0.0
2015-Mar-28 05:32N 36°08' W 005°26'0 0.0
2015-Mar-28 04:32N 36°08' W 005°26'0 0.1
2015-Mar-28 03:33N 36°08' W 005°26'10 9.4
2015-Mar-28 02:32N 35°58' W 005°26'2 0.8
2015-Mar-27 23:33N 36°01' W 005°26'7 6.8
2015-Mar-27 22:31N 36°08' W 005°26'0 0.0
2015-Mar-27 21:33N 36°08' W 005°26'8 7.4
2015-Mar-27 20:32N 36°00' W 005°25'6 1.9
2015-Mar-27 17:21N 35°56' W 005°30'1013.0
2015-Mar-27 16:33N 36°05' W 005°24'3 2.7
2015-Mar-27 15:23N 36°08' W 005°26'0 0.0
2015-Mar-27 14:32N 36°08' W 005°26'7 5.7
2015-Mar-27 13:13N 36°01' W 005°24'9 2.4
2015-Mar-27 09:27N 35°54' W 005°31'1314.1
2015-Mar-27 08:32N 36°05' W 005°24'4 0.6
2015-Mar-27 01:30N 36°09' W 005°26'1212.8
2015-Mar-27 00:33N 35°57' W 005°27'4 2.0
2015-Mar-26 22:21N 35°54' W 005°31'1012.6
2015-Mar-26 21:33N 36°02' W 005°24'6 5.3
2015-Mar-26 20:23N 36°08' W 005°26'0 0.0
2015-Mar-26 19:22N 36°08' W 005°26'9 9.2
2015-Mar-26 18:27N 35°59' W 005°25'5 1.6
2015-Mar-26 15:33N 35°57' W 005°29'1312.7
2015-Mar-26 14:33N 36°09' W 005°26'0 0.1
2015-Mar-26 12:33N 36°09' W 005°26'  
2015-Mar-24 08:33N 35°59' W 005°28'9 1.8
2015-Mar-24 03:26N 36°08' W 005°26'8 8.6
2015-Mar-24 02:32N 36°01' W 005°22'8 2.5
2015-Mar-23 23:29N 35°56' W 005°30'1213.0
2015-Mar-23 22:33N 36°07' W 005°24'7 2.1
2015-Mar-23 19:14N 36°00' W 005°25'5 1.4
2015-Mar-23 15:33N 35°57' W 005°29'1211.8
2015-Mar-23 14:33N 36°08' W 005°26'0 0.0
2015-Mar-23 12:33N 36°09' W 005°26'13 3.1
2015-Mar-23 08:33N 35°56' W 005°30'1312.5
2015-Mar-23 07:31N 36°09' W 005°25'1 0.4
2015-Mar-23 04:22N 36°08' W 005°26'0 0.1
2015-Mar-23 02:33N 36°08' W 005°26'1111.3
2015-Mar-23 01:33N 35°57' W 005°28'1 0.6
2015-Mar-22 23:25N 35°56' W 005°30'1112.8
2015-Mar-22 22:33N 36°06' W 005°24'3 0.9
2015-Mar-22 19:33N 36°09' W 005°25'11 3.6
2015-Mar-22 16:34N 35°58' W 005°29'11 2.7
2015-Mar-22 12:32N 36°09' W 005°25'16 5.0
2015-Mar-22 09:18N 35°54' W 005°31'912.3
2015-Mar-22 08:33N 36°01' W 005°25'7 6.2
2015-Mar-22 07:26N 36°08' W 005°26'0 0.0
2015-Mar-22 06:23N 36°08' W 005°26'0 0.0
2015-Mar-22 04:05N 36°08' W 005°26'0 0.2
2015-Mar-22 03:32N 36°08' W 005°26'8 8.0
2015-Mar-22 02:33N 36°00' W 005°24'6 1.9
2015-Mar-21 23:27N 35°57' W 005°30'1314.2
2015-Mar-21 22:33N 36°09' W 005°25'1 0.6
2015-Mar-21 20:31N 36°08' W 005°26'7 7.5
2015-Mar-21 19:32N 36°01' W 005°23'10 3.0
2015-Mar-21 16:21N 35°53' W 005°31'1114.3
2015-Mar-21 15:33N 36°03' W 005°24'5 2.3
2015-Mar-21 13:24N 36°08' W 005°26'8 6.6
2015-Mar-21 12:13N 36°00' W 005°24'9 2.9
2015-Mar-21 09:14N 35°54' W 005°31'913.5
2015-Mar-21 08:33N 36°01' W 005°25'7 1.3
2015-Mar-21 03:18N 36°08' W 005°26'5 6.9
2015-Mar-21 02:33N 36°03' W 005°24'12 3.9
2015-Mar-20 23:30N 35°53' W 005°31'1414.9
2015-Mar-20 22:34N 36°06' W 005°24'3 1.2
2015-Mar-20 20:10N 36°08' W 005°26'8 8.7
2015-Mar-20 19:17N 36°00' W 005°24'6 2.0
2015-Mar-20 16:08N 35°56' W 005°30'813.2
2015-Mar-20 15:33N 36°02' W 005°24'7 2.3
2015-Mar-20 12:27N 36°09' W 005°26'1313.4
2015-Mar-20 11:30N 35°57' W 005°28'4 1.9
2015-Mar-20 09:08N 35°53' W 005°31'813.4
2015-Mar-20 08:33N 35°60' W 005°26'8 8.1
2015-Mar-20 07:33N 36°08' W 005°26'0 0.0
2015-Mar-20 06:21N 36°08' W 005°26'0 0.0
2015-Mar-20 04:34N 36°08' W 005°26'8 7.9
2015-Mar-20 03:33N 36°00' W 005°25'6 1.8
2015-Mar-20 00:27N 35°56' W 005°30'1314.3
2015-Mar-19 23:34N 36°08' W 005°25'1 1.0
2015-Mar-19 22:11N 36°08' W 005°26'0 0.0
2015-Mar-19 21:32N 36°08' W 005°26'0 0.0
2015-Mar-19 20:26N 36°08' W 005°26'7 7.0
2015-Mar-19 19:25N 36°01' W 005°24'7 2.3
2015-Mar-19 16:23N 35°57' W 005°31'1113.2
2015-Mar-19 15:33N 36°06' W 005°23'5 1.4
2015-Mar-19 12:11N 36°01' W 005°24'10 3.2
2015-Mar-19 09:06N 35°53' W 005°31'712.9
2015-Mar-19 08:34N 35°59' W 005°27'9 9.0
2015-Mar-19 07:33N 36°08' W 005°26'0 0.1
2015-Mar-19 03:10N 36°08' W 005°26'810.8
2015-Mar-19 02:25N 36°00' W 005°23'7 2.4
2015-Mar-18 23:31N 35°57' W 005°31'1313.4
2015-Mar-18 22:34N 36°09' W 005°25'1 0.6
2015-Mar-18 20:18N 36°08' W 005°26'9 9.4
2015-Mar-18 19:20N 35°59' W 005°25'3 0.8
2015-Mar-18 15:33N 35°58' W 005°29'10 3.4
2015-Mar-18 12:33N 36°08' W 005°26'1010.0
2015-Mar-18 11:32N 35°58' W 005°27'  

Dump ship's entire track history